| time (UTC) | temp C | wind direction | speed KPH | gust KPH | rain 1hr cm | rain 24hr cm | rain mn cm | humidity % | barometer mb |
| 20260507160519 | 14 | 268 | 3.2 | 11.3 | 0.00 | 1.17 | 0.97 | 56 | 1006.4 |
| 20260507155520 | 15 | 347 | 4.8 | 8.0 | 0.00 | 1.17 | 0.97 | 59 | 1007.5 |
| 20260507154539 | 15 | 341 | 4.8 | 8.0 | 0.00 | 1.17 | 0.97 | 57 | 1007.1 |
| 20260507153539 | 15 | 307 | 3.2 | 9.7 | 0.00 | 1.17 | 0.97 | 58 | 1005.7 |
| 20260507152516 | 14 | 81 | 1.6 | 6.4 | 0.00 | 1.17 | 0.97 | 59 | 1007.2 |
| 20260507151516 | 14 | 291 | 8.0 | 14.5 | 0.00 | 1.17 | 0.97 | 60 | 1006.6 |
| 20260507150520 | 15 | 250 | 4.8 | 8.0 | 0.00 | 1.17 | 0.97 | 62 | 1005.8 |
| 20260507145540 | 15 | 287 | 9.7 | 16.1 | 0.00 | 1.17 | 0.97 | 59 | 1006.3 |
| 20260507144517 | 14 | 316 | 4.8 | 11.3 | 0.00 | 1.17 | 0.97 | 59 | 1006.5 |
| 20260507143518 | 13 | 302 | 4.8 | 11.3 | 0.00 | 1.17 | 0.97 | 60 | 1006.6 |
| 20260507142518 | 13 | 5 | 8.0 | 12.9 | 0.00 | 1.17 | 0.97 | 64 | 1006.6 |
| 20260507141518 | 12 | 331 | 9.7 | 11.3 | 0.00 | 1.17 | 0.97 | 68 | 1007.0 |
| 20260507140518 | 12 | 325 | 6.4 | 11.3 | 0.00 | 1.17 | 0.97 | 70 | 1007.0 |
| 20260507135538 | 12 | 5 | 8.0 | 19.3 | 0.00 | 1.17 | 0.97 | 74 | 1007.1 |
| 20260507134538 | 12 | 9 | 8.0 | 11.3 | 0.00 | 1.17 | 0.97 | 77 | 1007.1 |
| 20260507133518 | 11 | 292 | 6.4 | 12.9 | 0.00 | 1.17 | 0.97 | 82 | 1007.2 |
| 20260507132519 | 11 | 311 | 6.4 | 14.5 | 0.00 | 1.17 | 0.97 | 88 | 1007.3 |
| 20260507131519 | 11 | 325 | 4.8 | 8.0 | 0.00 | 1.17 | 0.97 | 93 | 1006.9 |
| 20260507130519 | 11 | 352 | 3.2 | 6.4 | 0.00 | 1.17 | 0.97 | 97 | 1006.9 |
| 20260507125519 | 10 | 343 | 3.2 | 4.8 | 0.00 | 1.17 | 0.97 | 97 | 1007.0 |
| 20260507124519 | 10 | 316 | 6.4 | 9.7 | 0.00 | 1.17 | 0.97 | 97 | 1007.8 |
| 20260507123519 | 10 | 331 | 3.2 | 4.8 | 0.00 | 1.17 | 0.97 | 97 | 1007.4 |
| 20260507122551 | 9 | 316 | 1.6 | 3.2 | 0.00 | 1.17 | 0.97 | 97 | 1008.2 |
| 20260507121552 | 9 | 0.0 | 0.0 | 0.05 | 1.17 | 0.97 | 97 | 1008.5 | |
| 20260507120517 | 9 | 244 | 0.0 | 1.6 | 0.15 | 1.17 | 0.97 | 97 | 1008.0 |
| 20260507115517 | 8 | 284 | 1.6 | 1.6 | 0.18 | 1.17 | 0.97 | 96 | 1007.9 |
| 20260507114517 | 8 | 0.0 | 0.0 | 0.20 | 1.17 | 0.97 | 96 | 1008.2 | |
| 20260507113517 | 8 | 342 | 1.6 | 1.6 | 0.20 | 1.17 | 0.97 | 96 | 1008.1 |
| 20260507112532 | 8 | 188 | 3.2 | 3.2 | 0.20 | 1.17 | 0.97 | 95 | 1008.6 |
| 20260507111518 | 8 | 351 | 0.0 | 1.6 | 0.18 | 1.12 | 0.94 | 95 | 1008.1 |
| 20260507110558 | 8 | 283 | 3.2 | 4.8 | 0.08 | 1.02 | 0.84 | 95 | 1008.7 |
| 20260507105518 | 8 | 268 | 3.2 | 4.8 | 0.05 | 0.97 | 0.79 | 95 | 1008.3 |
| 20260507103519 | 8 | 294 | 3.2 | 4.8 | 0.08 | 0.97 | 0.76 | 94 | 1008.0 |
| 20260507102519 | 8 | 344 | 3.2 | 4.8 | 0.08 | 0.97 | 0.76 | 94 | 1008.3 |
| 20260507101517 | 8 | 303 | 3.2 | 4.8 | 0.08 | 0.97 | 0.76 | 94 | 1008.4 |
| 20260507100517 | 8 | 357 | 4.8 | 9.7 | 0.08 | 0.97 | 0.76 | 94 | 1008.3 |
| 20260507095517 | 9 | 359 | 4.8 | 8.0 | 0.05 | 0.94 | 0.74 | 93 | 1008.1 |
| 20260507094520 | 9 | 296 | 6.4 | 9.7 | 0.05 | 0.89 | 0.71 | 93 | 1008.1 |
| 20260507093558 | 9 | 301 | 6.4 | 9.7 | 0.08 | 0.89 | 0.69 | 93 | 1007.9 |
| 20260507092517 | 9 | 298 | 6.4 | 11.3 | 0.13 | 0.89 | 0.69 | 94 | 1007.9 |
| 20260507091517 | 9 | 299 | 4.8 | 9.7 | 0.15 | 0.89 | 0.69 | 94 | 1008.0 |
| 20260507090521 | 10 | 298 | 6.4 | 9.7 | 0.41 | 0.89 | 0.69 | 94 | 1008.0 |
| 20260507085518 | 10 | 302 | 6.4 | 9.7 | 0.48 | 0.86 | 0.69 | 95 | 1007.3 |
| 20260507084517 | 10 | 309 | 3.2 | 6.4 | 0.51 | 0.84 | 0.64 | 95 | 1007.4 |
| 20260507083518 | 10 | 352 | 6.4 | 9.7 | 0.56 | 0.81 | 0.61 | 94 | 1007.3 |
| 20260507082518 | 10 | 351 | 6.4 | 8.0 | 0.58 | 0.76 | 0.58 | 94 | 1007.4 |
| 20260507081521 | 11 | 326 | 3.2 | 11.3 | 0.53 | 0.74 | 0.53 | 94 | 1007.5 |
| 20260507080518 | 11 | 299 | 3.2 | 9.7 | 0.28 | 0.48 | 0.28 | 94 | 1007.6 |
| 20260507075519 | 12 | 310 | 8.0 | 12.9 | 0.18 | 0.38 | 0.18 | 93 | 1007.3 |
| 20260507074519 | 12 | 305 | 4.8 | 8.0 | 0.13 | 0.33 | 0.13 | 93 | 1007.0 |
| 20260507073519 | 13 | 279 | 6.4 | 9.7 | 0.05 | 0.25 | 0.05 | 92 | 1006.6 |
| 20260507072519 | 13 | 319 | 0.0 | 3.2 | 0.00 | 0.20 | 0.00 | 95 | 1005.8 |
| 20260507071516 | 13 | 285 | 1.6 | 3.2 | 0.00 | 0.20 | 0.00 | 96 | 1005.8 |
| 20260507070539 | 13 | 274 | 3.2 | 6.4 | 0.00 | 0.20 | 0.00 | 97 | 1005.7 |
| 20260507065519 | 13 | 300 | 3.2 | 4.8 | 0.00 | 0.20 | 0.00 | 97 | 1005.9 |
| 20260507064520 | 13 | 0.0 | 0.0 | 0.00 | 0.20 | 0.00 | 98 | 1005.8 | |
| 20260507063539 | 13 | 291 | 0.0 | 1.6 | 0.00 | 0.20 | 0.00 | 97 | 1005.8 |
| 20260507062517 | 13 | 0.0 | 0.0 | 0.00 | 0.20 | 0.00 | 97 | 1005.9 | |
| 20260507061518 | 13 | 90 | 0.0 | 1.6 | 0.00 | 0.20 | 0.00 | 97 | 1006.0 |
| 20260507060517 | 13 | 156 | 1.6 | 3.2 | 0.00 | 0.20 | 0.00 | 97 | 1006.1 |
| 20260507055517 | 13 | 353 | 0.0 | 1.6 | 0.00 | 0.20 | 0.00 | 97 | 1006.2 |
| 20260507054521 | 13 | 200 | 1.6 | 4.8 | 0.00 | 0.20 | 0.00 | 97 | 1006.3 |
| 20260507053521 | 13 | 193 | 1.6 | 3.2 | 0.00 | 0.20 | 0.00 | 97 | 1006.3 |
| 20260507052518 | 13 | 197 | 3.2 | 4.8 | 0.00 | 0.20 | 0.00 | 97 | 1006.4 |
| 20260507051538 | 13 | 185 | 1.6 | 3.2 | 0.00 | 0.20 | 0.00 | 97 | 1006.5 |
| 20260507050518 | 13 | 199 | 3.2 | 3.2 | 0.00 | 0.20 | 0.00 | 97 | 1006.6 |
| 20260507045518 | 13 | 194 | 1.6 | 3.2 | 0.00 | 0.20 | 0.00 | 97 | 1006.6 |
| 20260507044519 | 13 | 165 | 4.8 | 6.4 | 0.00 | 0.20 | 0.00 | 97 | 1006.6 |
| 20260507043519 | 13 | 147 | 0.0 | 1.6 | 0.00 | 0.20 | 0.00 | 97 | 1006.7 |
| 20260507042519 | 13 | 164 | 3.2 | 4.8 | 0.00 | 0.20 | 0.00 | 97 | 1006.4 |
| 20260507041519 | 13 | 147 | 1.6 | 1.6 | 0.00 | 0.20 | 0.00 | 97 | 1006.4 |
| 20260507040519 | 13 | 199 | 1.6 | 4.8 | 0.00 | 0.20 | 0.00 | 97 | 1006.5 |
| 20260507035516 | 13 | 227 | 3.2 | 8.0 | 0.00 | 0.20 | 0.20 | 97 | 1006.4 |
| 20260507034520 | 13 | 212 | 4.8 | 8.0 | 0.00 | 0.20 | 0.20 | 97 | 1006.6 |
| 20260507033520 | 13 | 194 | 6.4 | 8.0 | 0.00 | 0.20 | 0.20 | 97 | 1006.8 |
| 20260507032517 | 13 | 172 | 3.2 | 3.2 | 0.00 | 0.20 | 0.20 | 97 | 1006.7 |
| 20260507031518 | 13 | 167 | 3.2 | 4.8 | 0.00 | 0.20 | 0.20 | 97 | 1006.7 |
| 20260507030517 | 13 | 189 | 4.8 | 9.7 | 0.00 | 0.20 | 0.20 | 97 | 1006.6 |
| 20260507025520 | 13 | 205 | 3.2 | 6.4 | 0.00 | 0.20 | 0.20 | 97 | 1006.5 |
| 20260507024521 | 13 | 173 | 3.2 | 6.4 | 0.00 | 0.20 | 0.20 | 97 | 1006.5 |
| 20260507023518 | 13 | 187 | 3.2 | 8.0 | 0.00 | 0.20 | 0.20 | 97 | 1006.6 |
| 20260507022518 | 13 | 182 | 6.4 | 11.3 | 0.00 | 0.20 | 0.20 | 97 | 1006.4 |
| 20260507021519 | 13 | 191 | 4.8 | 9.7 | 0.00 | 0.20 | 0.20 | 97 | 1006.7 |
| 20260507020518 | 13 | 182 | 6.4 | 11.3 | 0.00 | 0.20 | 0.20 | 97 | 1006.6 |
| 20260507015515 | 13 | 202 | 3.2 | 6.4 | 0.00 | 0.20 | 0.20 | 97 | 1006.8 |
| 20260507014518 | 13 | 187 | 3.2 | 6.4 | 0.00 | 0.20 | 0.20 | 97 | 1007.0 |
| 20260507013518 | 13 | 214 | 6.4 | 9.7 | 0.00 | 0.20 | 0.20 | 97 | 1006.9 |
| 20260507012519 | 13 | 182 | 6.4 | 9.7 | 0.00 | 0.20 | 0.20 | 97 | 1007.1 |
| 20260507011519 | 13 | 201 | 8.0 | 11.3 | 0.00 | 0.20 | 0.20 | 97 | 1007.0 |
| 20260507010516 | 13 | 176 | 6.4 | 9.7 | 0.00 | 0.20 | 0.20 | 97 | 1007.1 |
| 20260507005539 | 13 | 156 | 3.2 | 6.4 | 0.00 | 0.20 | 0.20 | 97 | 1007.1 |
| 20260507004520 | 13 | 207 | 4.8 | 6.4 | 0.03 | 0.20 | 0.20 | 97 | 1007.1 |
| 20260507003520 | 13 | 196 | 8.0 | 12.9 | 0.03 | 0.20 | 0.20 | 97 | 1007.0 |
| 20260507002520 | 13 | 182 | 9.7 | 17.7 | 0.03 | 0.20 | 0.20 | 97 | 1007.0 |
| 20260507001517 | 13 | 198 | 4.8 | 11.3 | 0.03 | 0.20 | 0.20 | 97 | 1007.1 |
| 20260507000517 | 13 | 196 | 6.4 | 8.0 | 0.03 | 0.20 | 0.20 | 97 | 1007.1 |
| 20260506235541 | 13 | 183 | 8.0 | 11.3 | 0.03 | 0.20 | 0.20 | 96 | 1007.0 |
| 20260506234520 | 13 | 168 | 6.4 | 9.7 | 0.00 | 0.18 | 0.18 | 96 | 1007.0 |
| 20260506233517 | 13 | 214 | 11.3 | 14.5 | 0.00 | 0.18 | 0.18 | 96 | 1007.1 |
| 20260506232518 | 12 | 203 | 4.8 | 8.0 | 0.00 | 0.18 | 0.18 | 96 | 1007.2 |
| 20260506231518 | 12 | 202 | 6.4 | 9.7 | 0.03 | 0.18 | 0.18 | 96 | 1007.3 |
| 20260506230518 | 12 | 183 | 12.9 | 19.3 | 0.03 | 0.18 | 0.18 | 96 | 1007.2 |
| 20260506225518 | 13 | 210 | 4.8 | 6.4 | 0.03 | 0.18 | 0.18 | 96 | 1007.2 |
| 20260506224518 | 13 | 193 | 6.4 | 8.0 | 0.03 | 0.18 | 0.18 | 96 | 1007.0 |
| 20260506223519 | 13 | 176 | 6.4 | 11.3 | 0.03 | 0.18 | 0.18 | 96 | 1007.2 |
| 20260506222519 | 13 | 192 | 9.7 | 14.5 | 0.00 | 0.18 | 0.18 | 95 | 1007.3 |
| 20260506221519 | 13 | 178 | 6.4 | 11.3 | 0.00 | 0.15 | 0.15 | 95 | 1007.6 |
| 20260506220516 | 13 | 184 | 8.0 | 11.3 | 0.00 | 0.15 | 0.15 | 95 | 1007.6 |
| 20260506215516 | 13 | 193 | 6.4 | 12.9 | 0.00 | 0.15 | 0.15 | 94 | 1007.7 |
| 20260506214520 | 13 | 178 | 8.0 | 14.5 | 0.00 | 0.15 | 0.15 | 93 | 1007.7 |
| 20260506213519 | 13 | 184 | 4.8 | 9.7 | 0.00 | 0.15 | 0.15 | 93 | 1007.8 |
| 20260506212537 | 13 | 182 | 4.8 | 11.3 | 0.00 | 0.15 | 0.15 | 93 | 1007.9 |
| 20260506211518 | 13 | 182 | 3.2 | 8.0 | 0.00 | 0.15 | 0.15 | 93 | 1007.9 |
| 20260506210540 | 13 | 183 | 12.9 | 17.7 | 0.00 | 0.15 | 0.15 | 92 | 1008.0 |
| 20260506205521 | 13 | 197 | 14.5 | 20.9 | 0.05 | 0.15 | 0.15 | 92 | 1008.1 |
| 20260506204518 | 13 | 177 | 9.7 | 14.5 | 0.08 | 0.15 | 0.15 | 92 | 1008.0 |
| 20260506203517 | 14 | 183 | 9.7 | 17.7 | 0.13 | 0.15 | 0.15 | 92 | 1008.2 |
| 20260506202538 | 14 | 206 | 9.7 | 16.1 | 0.15 | 0.15 | 0.15 | 92 | 1008.1 |
| 20260506201538 | 14 | 206 | 8.0 | 11.3 | 0.15 | 0.15 | 0.15 | 92 | 1008.3 |
| 20260506200518 | 15 | 189 | 9.7 | 12.9 | 0.15 | 0.15 | 0.15 | 92 | 1008.2 |
| 20260506195519 | 15 | 204 | 11.3 | 22.5 | 0.10 | 0.10 | 0.10 | 89 | 1008.3 |
| 20260506194518 | 15 | 204 | 8.0 | 12.9 | 0.08 | 0.08 | 0.08 | 86 | 1008.6 |
| 20260506193518 | 16 | 177 | 6.4 | 11.3 | 0.03 | 0.03 | 0.03 | 84 | 1008.6 |
| 20260506192519 | 16 | 191 | 8.0 | 11.3 | 0.00 | 0.00 | 0.00 | 80 | 1008.6 |
| 20260506191519 | 16 | 171 | 12.9 | 24.1 | 0.00 | 0.00 | 0.00 | 77 | 1008.2 |
| 20260506190519 | 16 | 190 | 8.0 | 12.9 | 0.00 | 0.00 | 0.00 | 76 | 1008.2 |
| 20260506185539 | 16 | 184 | 8.0 | 17.7 | 0.00 | 0.00 | 0.00 | 76 | 1008.1 |
| 20260506184540 | 16 | 181 | 6.4 | 11.3 | 0.00 | 0.00 | 0.00 | 76 | 1008.1 |
| 20260506183519 | 17 | 193 | 8.0 | 12.9 | 0.00 | 0.00 | 0.00 | 75 | 1008.4 |
| 20260506182517 | 17 | 191 | 11.3 | 14.5 | 0.00 | 0.00 | 0.00 | 74 | 1008.5 |
| 20260506181538 | 17 | 181 | 6.4 | 11.3 | 0.00 | 0.00 | 0.00 | 73 | 1008.3 |
| 20260506180538 | 17 | 170 | 11.3 | 17.7 | 0.00 | 0.00 | 0.00 | 73 | 1008.5 |
| 20260506175517 | 18 | 201 | 11.3 | 17.7 | 0.00 | 0.00 | 0.00 | 72 | 1008.8 |
| 20260506173517 | 18 | 206 | 9.7 | 14.5 | 0.00 | 0.00 | 0.00 | 71 | 1008.8 |
| 20260506172517 | 18 | 180 | 9.7 | 16.1 | 0.00 | 0.00 | 0.00 | 70 | 1008.5 |
| 20260506171538 | 18 | 172 | 9.7 | 16.1 | 0.00 | 0.00 | 0.00 | 71 | 1008.8 |
| 20260506170521 | 18 | 171 | 14.5 | 19.3 | 0.00 | 0.00 | 0.00 | 70 | 1007.3 |
| 20260506165518 | 18 | 167 | 8.0 | 12.9 | 0.00 | 0.00 | 0.00 | 72 | 1008.4 |
| 20260506164518 | 17 | 185 | 11.3 | 17.7 | 0.00 | 0.00 | 0.00 | 72 | 1008.8 |
| 20260506163518 | 18 | 174 | 9.7 | 14.5 | 0.00 | 0.00 | 0.00 | 71 | 1008.9 |
| 20260506162519 | 17 | 195 | 8.0 | 11.3 | 0.00 | 0.00 | 0.00 | 71 | 1008.8 |
| 20260506161539 | 18 | 175 | 14.5 | 19.3 | 0.00 | 0.00 | 0.00 | 72 | 1009.3 |